| DS18B20 | SHTC3 | ||||||
|---|---|---|---|---|---|---|---|
| ID | Date d/m/Y & Time | data1 สูง | data2 ต่ำ | data3 นอก | temp pcb | hum pcb | Time |
| 7196 | 30/03/2026 12:42:46 | 32.3  | 31.2  | 32.3  | 31.7  | 67.9  | 12:42 |
| 7195 | 30/03/2026 12:38:04 | 32.2  | 31.1  | 32.9  | 31.6  | 68.1  | 12:38 |
| 7194 | 30/03/2026 12:33:22 | 32.2  | 31.1  | 32.2  | 31.6  | 68.0  | 12:33 |
| 7193 | 30/03/2026 12:28:40 | 32.2  | 31.1  | 32.1  | 31.6  | 67.9  | 12:28 |
| 7192 | 30/03/2026 12:23:59 | 32.2  | 31.1  | 31.9  | 31.6  | 67.9  | 12:23 |
| 7191 | 30/03/2026 12:19:17 | 32.2  | 31.1  | 32.2  | 31.5  | 68.0  | 12:19 |
| 7190 | 30/03/2026 12:14:34 | 32.1  | 31.0  | 32.4  | 31.5  | 68.1  | 12:14 |
| 7189 | 30/03/2026 12:09:53 | 32.1  | 31.0  | 32.3  | 31.4  | 68.2  | 12:09 |
| 7188 | 30/03/2026 12:05:11 | 32.1  | 30.9  | 32.2  | 31.4  | 68.1  | 12:05 |
| 7187 | 30/03/2026 12:00:29 | 32.0  | 30.9  | 32.1  | 31.2  | 68.0  | 12:00 |
| 7186 | 30/03/2026 11:55:47 | 32.0  | 30.9  | 32.0  | 31.4  | 68.1  | 11:55 |
| 7185 | 30/03/2026 11:51:06 | 31.9  | 30.9  | 32.2  | 31.2  | 68.0  | 11:51 |
| 7184 | 30/03/2026 11:46:24 | 31.9  | 30.9  | 32.2  | 31.3  | 68.0  | 11:46 |
| 7183 | 30/03/2026 11:41:43 | 31.9  | 30.8  | 31.9  | 31.3  | 67.7  | 11:41 |
| 7182 | 30/03/2026 11:37:01 | 31.9  | 30.8  | 32.2  | 31.1  | 67.7  | 11:37 |
| 7181 | 30/03/2026 11:32:20 | 31.9  | 30.8  | 31.9  | 31.2  | 67.7  | 11:32 |
| 7180 | 30/03/2026 11:27:38 | 31.9  | 30.8  | 31.8  | 31.2  | 67.6  | 11:27 |
| 7179 | 30/03/2026 11:22:56 | 31.9  | 30.7  | 32.1  | 31.1  | 67.5  | 11:22 |
| 7178 | 30/03/2026 11:18:14 | 31.9  | 30.6  | 31.8  | 31.1  | 67.5  | 11:18 |
| 7177 | 30/03/2026 11:13:32 | 31.9  | 30.6  | 31.9  | 31.1  | 67.4  | 11:13 |
| 7176 | 30/03/2026 11:08:51 | 31.9  | 30.6  | 31.7  | 31.1  | 67.5  | 11:08 |
| 7175 | 30/03/2026 11:04:09 | 31.8  | 30.4  | 33.0  | 31.1  | 67.6  | 11:04 |
| 7174 | 30/03/2026 10:59:27 | 31.7  | 30.4  | 33.1  | 31.1  | 67.7  | 10:59 |
| 7173 | 30/03/2026 10:54:45 | 31.6  | 30.3  | 32.8  | 31.0  | 67.7  | 10:54 |